Time;durP1;ratioP1;P1;durP2;ratioP2;P2;SDS_P1;SDS_P2;PMS_P1;PMS_P2;Temp;Humidity;BMP_temperature;BMP_pressure;BME280_temperature;BME280_humidity;BME280_pressure;Samples;Min_cycle;Max_cycle;Signal;HPM_P1;HPM_P2
2023/05/09 00:00:05;;;;;;;5.90;5.40;;;;;;;;;;4974832;28;20037;-79
2023/05/09 00:02:33;;;;;;;6.68;6.07;;;;;;;;;;4991795;28;20027;-78
2023/05/09 00:04:58;;;;;;;6.28;5.78;;;;;;;;;;4991213;28;20046;-79
2023/05/09 00:07:23;;;;;;;5.97;5.57;;;;;;;;;;4991890;28;20044;-78
2023/05/09 00:09:49;;;;;;;5.97;5.55;;;;;;;;;;4974262;28;20027;-78
2023/05/09 00:12:15;;;;;;;6.65;6.05;;;;;;;;;;4991918;28;20029;-79
2023/05/09 00:14:40;;;;;;;5.65;5.07;;;;;;;;;;4990207;28;20041;-78
2023/05/09 00:17:06;;;;;;;8.70;5.05;;;;;;;;;;4971583;28;20057;-79
2023/05/09 00:19:32;;;;;;;5.65;5.25;;;;;;;;;;4991898;28;20089;-79
2023/05/09 00:21:57;;;;;;;5.88;5.47;;;;;;;;;;4993088;28;20038;-79
2023/05/09 00:24:22;;;;;;;6.38;5.90;;;;;;;;;;4975429;28;20085;-78
2023/05/09 00:26:48;;;;;;;7.43;5.75;;;;;;;;;;4995928;28;20026;-80
2023/05/09 00:29:13;;;;;;;6.32;5.85;;;;;;;;;;4996758;28;20026;-79
2023/05/09 00:31:38;;;;;;;5.10;4.80;;;;;;;;;;4996947;28;20022;-79
2023/05/09 00:34:04;;;;;;;6.45;5.47;;;;;;;;;;4992903;28;20447;-79
2023/05/09 00:36:29;;;;;;;6.57;6.07;;;;;;;;;;4994177;28;20041;-79
2023/05/09 00:38:54;;;;;;;6.25;5.70;;;;;;;;;;4994397;28;20022;-80
2023/05/09 00:41:20;;;;;;;6.40;5.90;;;;;;;;;;4984767;28;20027;-80
2023/05/09 00:43:45;;;;;;;6.40;5.80;;;;;;;;;;4990293;28;20026;-79
2023/05/09 00:46:11;;;;;;;6.45;6.03;;;;;;;;;;5004014;28;20476;-80
2023/05/09 00:48:36;;;;;;;6.20;5.78;;;;;;;;;;4983441;28;20106;-81
2023/05/09 00:51:01;;;;;;;7.05;6.55;;;;;;;;;;4996974;28;20029;-80
2023/05/09 00:53:27;;;;;;;6.20;5.80;;;;;;;;;;5001403;28;20038;-81
2023/05/09 00:55:54;;;;;;;5.93;5.47;;;;;;;;;;4985418;28;20035;-81
2023/05/09 00:58:20;;;;;;;5.70;5.30;;;;;;;;;;5004401;28;20109;-80
2023/05/09 01:00:45;;;;;;;6.13;5.55;;;;;;;;;;4984881;28;20025;-81
2023/05/09 01:03:11;;;;;;;7.35;6.63;;;;;;;;;;5005081;28;20112;-80
2023/05/09 01:06:05;;;;;;;6.65;6.15;;;;;;;;;;5001296;28;20060;-80
2023/05/09 01:08:45;;;;;;;6.32;5.93;;;;;;;;;;4981473;28;20078;-79
2023/05/09 01:11:10;;;;;;;7.03;6.30;;;;;;;;;;4992766;28;20034;-79
2023/05/09 01:13:58;;;;;;;7.88;6.22;;;;;;;;;;4991598;28;20025;-79
2023/05/09 01:16:27;;;;;;;7.15;6.53;;;;;;;;;;4984456;28;20022;-79
2023/05/09 01:19:01;;;;;;;7.35;6.68;;;;;;;;;;4989059;28;20034;-79
2023/05/09 01:21:28;;;;;;;7.47;6.97;;;;;;;;;;4976700;28;20030;-79
2023/05/09 01:24:22;;;;;;;6.82;6.10;;;;;;;;;;4992880;28;20031;-79
2023/05/09 01:26:50;;;;;;;6.40;5.80;;;;;;;;;;4922761;28;20592;-80
2023/05/09 01:29:22;;;;;;;6.78;6.25;;;;;;;;;;4973765;28;20096;-80
2023/05/09 01:31:48;;;;;;;7.40;6.80;;;;;;;;;;4995390;28;20018;-80
2023/05/09 01:34:14;;;;;;;7.20;6.70;;;;;;;;;;4979180;28;20033;-80
2023/05/09 01:36:41;;;;;;;6.25;5.75;;;;;;;;;;4993682;28;20106;-80
2023/05/09 01:39:09;;;;;;;9.02;6.50;;;;;;;;;;4977146;28;20019;-80
2023/05/09 01:41:36;;;;;;;7.75;6.38;;;;;;;;;;4975570;28;20072;-80
2023/05/09 01:44:03;;;;;;;6.10;5.70;;;;;;;;;;4993322;28;20018;-79
2023/05/09 01:46:29;;;;;;;6.70;6.10;;;;;;;;;;4992981;28;20034;-79
2023/05/09 01:48:56;;;;;;;6.82;6.20;;;;;;;;;;4973937;28;20034;-80
2023/05/09 01:51:21;;;;;;;6.70;6.20;;;;;;;;;;4991527;28;20034;-81
2023/05/09 01:53:47;;;;;;;7.50;6.72;;;;;;;;;;4996304;28;20030;-80
2023/05/09 01:56:13;;;;;;;6.68;6.28;;;;;;;;;;4978789;28;20022;-80
2023/05/09 01:58:40;;;;;;;7.50;6.90;;;;;;;;;;4996791;28;20022;-79
2023/05/09 02:01:05;;;;;;;7.43;6.82;;;;;;;;;;4974760;28;20026;-80
2023/05/09 02:03:32;;;;;;;7.85;7.18;;;;;;;;;;4983630;28;20043;-80
2023/05/09 02:05:58;;;;;;;7.43;6.82;;;;;;;;;;4996724;28;20030;-80
2023/05/09 02:08:23;;;;;;;7.28;6.68;;;;;;;;;;4988666;28;20026;-81
2023/05/09 02:10:49;;;;;;;7.30;6.80;;;;;;;;;;5003130;28;20010;-80
2023/05/09 02:13:14;;;;;;;7.75;7.20;;;;;;;;;;4988195;28;20037;-80
2023/05/09 02:15:40;;;;;;;7.80;7.20;;;;;;;;;;4987111;28;20022;-79
2023/05/09 02:18:06;;;;;;;8.20;7.47;;;;;;;;;;4979975;28;20057;-80
2023/05/09 02:20:34;;;;;;;8.35;7.60;;;;;;;;;;4998079;28;20026;-80
2023/05/09 02:23:00;;;;;;;7.35;6.65;;;;;;;;;;4999817;28;20042;-80
2023/05/09 02:25:25;;;;;;;7.40;6.70;;;;;;;;;;4978681;28;20515;-80
2023/05/09 02:27:52;;;;;;;7.55;6.85;;;;;;;;;;4998480;28;20031;-80
2023/05/09 02:30:22;;;;;;;7.15;6.53;;;;;;;;;;4996774;28;20019;-80
2023/05/09 02:32:49;;;;;;;7.72;7.13;;;;;;;;;;4998517;28;20022;-80
2023/05/09 02:35:16;;;;;;;7.63;7.03;;;;;;;;;;4997753;28;20022;-80
2023/05/09 02:37:41;;;;;;;8.15;7.55;;;;;;;;;;5000749;28;20499;-80
2023/05/09 02:40:08;;;;;;;7.40;6.90;;;;;;;;;;4978617;28;20023;-80
2023/05/09 02:42:33;;;;;;;7.47;6.80;;;;;;;;;;4975914;28;20520;-80
2023/05/09 02:44:58;;;;;;;7.28;6.78;;;;;;;;;;4998481;28;20025;-80
2023/05/09 02:47:24;;;;;;;7.05;6.55;;;;;;;;;;4977934;28;20042;-80
2023/05/09 02:49:49;;;;;;;3.53;3.03;;;;;;;;;;4999199;28;20020;-80
2023/05/09 02:52:15;;;;;;;5.50;5.10;;;;;;;;;;4996139;28;20029;-79
2023/05/09 02:54:40;;;;;;;6.07;5.53;;;;;;;;;;4986757;28;20027;-80
2023/05/09 02:57:05;;;;;;;6.22;5.70;;;;;;;;;;5002539;28;20022;-80
2023/05/09 02:59:31;;;;;;;6.20;5.60;;;;;;;;;;4964433;28;20093;-79
2023/05/09 03:01:57;;;;;;;5.05;4.57;;;;;;;;;;4998051;28;20073;-79
2023/05/09 03:04:22;;;;;;;2.75;2.55;;;;;;;;;;4999545;28;20064;-80
2023/05/09 03:06:47;;;;;;;1.65;1.55;;;;;;;;;;4996914;28;20034;-81
2023/05/09 03:09:13;;;;;;;1.60;1.50;;;;;;;;;;4997599;28;20050;-80
2023/05/09 03:11:38;;;;;;;1.40;1.25;;;;;;;;;;4983061;28;20049;-80
2023/05/09 03:14:03;;;;;;;0.90;0.90;;;;;;;;;;4976700;28;20097;-80
2023/05/09 03:16:29;;;;;;;1.70;1.60;;;;;;;;;;4998361;28;20026;-79
2023/05/09 03:18:55;;;;;;;3.13;1.83;;;;;;;;;;4997200;28;20026;-80
2023/05/09 03:21:20;;;;;;;2.58;2.38;;;;;;;;;;4997681;28;20026;-80
2023/05/09 03:23:45;;;;;;;2.70;2.50;;;;;;;;;;4982399;28;20051;-79
2023/05/09 03:26:10;;;;;;;2.38;2.25;;;;;;;;;;4994733;28;20293;-80
2023/05/09 03:28:37;;;;;;;2.97;2.40;;;;;;;;;;4976900;28;20624;-79
2023/05/09 03:31:02;;;;;;;2.70;2.50;;;;;;;;;;4996779;28;20261;-79
2023/05/09 03:33:27;;;;;;;2.40;2.20;;;;;;;;;;5007302;28;20049;-80
2023/05/09 03:35:53;;;;;;;2.30;2.20;;;;;;;;;;5006596;28;20031;-79
2023/05/09 03:38:18;;;;;;;1.77;1.67;;;;;;;;;;5000192;28;20018;-79
2023/05/09 03:40:43;;;;;;;2.50;2.30;;;;;;;;;;4998111;28;20078;-79
2023/05/09 03:43:09;;;;;;;1.23;1.17;;;;;;;;;;4977515;28;20437;-79
2023/05/09 03:45:35;;;;;;;2.15;1.52;;;;;;;;;;4996863;28;20057;-79
2023/05/09 03:48:01;;;;;;;1.63;1.52;;;;;;;;;;4996064;28;20108;-79
2023/05/09 03:50:27;;;;;;;3.08;1.90;;;;;;;;;;4996298;28;20022;-80
2023/05/09 03:52:54;;;;;;;1.35;1.25;;;;;;;;;;5002298;28;20026;-80
2023/05/09 03:55:19;;;;;;;1.48;1.38;;;;;;;;;;5008815;28;20491;-80
2023/05/09 03:57:45;;;;;;;2.25;1.20;;;;;;;;;;4999376;28;20019;-79
2023/05/09 04:00:11;;;;;;;1.42;1.33;;;;;;;;;;4997796;28;20213;-80
2023/05/09 04:02:36;;;;;;;1.13;1.02;;;;;;;;;;5002953;28;20019;-79
2023/05/09 04:05:02;;;;;;;1.10;1.10;;;;;;;;;;4998877;28;20114;-80
2023/05/09 04:07:28;;;;;;;2.38;0.90;;;;;;;;;;4975730;28;20055;-80
2023/05/09 04:09:56;;;;;;;3.22;0.95;;;;;;;;;;4992742;28;20048;-79
2023/05/09 04:12:21;;;;;;;1.30;1.20;;;;;;;;;;4981402;28;20030;-80
2023/05/09 04:14:46;;;;;;;1.10;0.90;;;;;;;;;;4976794;28;20030;-80
2023/05/09 04:17:12;;;;;;;1.10;1.00;;;;;;;;;;4976485;28;20045;-80
2023/05/09 04:19:37;;;;;;;1.27;1.10;;;;;;;;;;4976995;28;20010;-79
2023/05/09 04:22:03;;;;;;;0.93;0.82;;;;;;;;;;4993768;28;20026;-80
2023/05/09 04:24:28;;;;;;;0.88;0.80;;;;;;;;;;4994209;28;20022;-80
2023/05/09 04:26:53;;;;;;;0.73;0.73;;;;;;;;;;4993613;28;20040;-81
2023/05/09 04:29:19;;;;;;;1.00;1.00;;;;;;;;;;4993399;28;20014;-80
2023/05/09 04:31:44;;;;;;;0.65;0.65;;;;;;;;;;4996338;28;20030;-79
2023/05/09 04:34:10;;;;;;;0.30;0.30;;;;;;;;;;4997565;28;20019;-80
2023/05/09 04:36:35;;;;;;;0.55;0.50;;;;;;;;;;5003056;28;20026;-80
2023/05/09 04:39:01;;;;;;;1.45;0.45;;;;;;;;;;4972663;28;20220;-78
2023/05/09 04:41:26;;;;;;;0.43;0.43;;;;;;;;;;4968431;28;20030;-79
2023/05/09 04:43:51;;;;;;;0.50;0.50;;;;;;;;;;4986193;28;20035;-79
2023/05/09 04:46:17;;;;;;;0.30;0.30;;;;;;;;;;4991992;28;20041;-80
2023/05/09 04:48:42;;;;;;;2.15;0.40;;;;;;;;;;4983559;28;20010;-80
2023/05/09 04:51:08;;;;;;;0.30;0.30;;;;;;;;;;4996811;28;20053;-81
2023/05/09 04:53:33;;;;;;;1.75;0.43;;;;;;;;;;5000420;28;20053;-81
2023/05/09 04:55:59;;;;;;;0.43;0.43;;;;;;;;;;5003644;28;20092;-80
2023/05/09 04:58:25;;;;;;;1.23;0.82;;;;;;;;;;5002876;28;20029;-80
2023/05/09 05:00:51;;;;;;;0.50;0.50;;;;;;;;;;5000922;28;20038;-81
2023/05/09 05:03:17;;;;;;;0.80;0.80;;;;;;;;;;4982219;28;20077;-80
2023/05/09 05:05:42;;;;;;;0.45;0.45;;;;;;;;;;4996690;28;20015;-81
2023/05/09 05:08:07;;;;;;;0.32;0.32;;;;;;;;;;4972703;28;20034;-80
2023/05/09 05:10:33;;;;;;;0.57;0.47;;;;;;;;;;4989358;28;20049;-80
2023/05/09 05:12:58;;;;;;;0.40;0.40;;;;;;;;;;4996136;28;20022;-81
2023/05/09 05:15:23;;;;;;;0.35;0.30;;;;;;;;;;4995240;28;20026;-81
2023/05/09 05:17:49;;;;;;;0.80;0.40;;;;;;;;;;4999409;28;20030;-81
2023/05/09 05:20:14;;;;;;;0.60;0.35;;;;;;;;;;4998259;28;20018;-81
2023/05/09 05:22:39;;;;;;;0.50;0.50;;;;;;;;;;4997371;28;20042;-80
2023/05/09 05:25:05;;;;;;;0.40;0.40;;;;;;;;;;4996035;28;20026;-80
2023/05/09 05:27:30;;;;;;;0.35;0.35;;;;;;;;;;4996366;28;20085;-81
2023/05/09 05:29:56;;;;;;;0.30;0.30;;;;;;;;;;4997124;28;20030;-81
2023/05/09 05:32:21;;;;;;;0.50;0.32;;;;;;;;;;4996551;28;20033;-81
2023/05/09 05:34:46;;;;;;;0.40;0.30;;;;;;;;;;4996647;28;20488;-80
2023/05/09 05:37:11;;;;;;;0.30;0.30;;;;;;;;;;4977948;28;20425;-80
2023/05/09 05:39:37;;;;;;;1.33;0.40;;;;;;;;;;4993350;28;20328;-80
2023/05/09 05:42:02;;;;;;;0.57;0.35;;;;;;;;;;4994182;28;20026;-82
2023/05/09 05:44:27;;;;;;;0.88;0.40;;;;;;;;;;4973713;28;20031;-82
2023/05/09 05:46:53;;;;;;;0.30;0.30;;;;;;;;;;4967752;28;20053;-81
2023/05/09 05:49:18;;;;;;;1.38;0.30;;;;;;;;;;4968459;28;20018;-80
2023/05/09 05:51:43;;;;;;;1.17;0.30;;;;;;;;;;4985914;28;20109;-82
2023/05/09 05:54:08;;;;;;;0.53;0.50;;;;;;;;;;4983892;28;20257;-83
2023/05/09 05:56:34;;;;;;;1.83;0.50;;;;;;;;;;4982343;28;20249;-80
2023/05/09 05:58:59;;;;;;;0.30;0.30;;;;;;;;;;4979478;28;20391;-81
2023/05/09 06:01:25;;;;;;;0.30;0.30;;;;;;;;;;4996310;28;20026;-81
2023/05/09 06:03:53;;;;;;;2.83;0.50;;;;;;;;;;4991151;28;20136;-79
2023/05/09 06:06:20;;;;;;;0.50;0.40;;;;;;;;;;4993517;28;20041;-79
2023/05/09 06:08:45;;;;;;;1.05;0.40;;;;;;;;;;4989418;28;20488;-79
2023/05/09 06:11:11;;;;;;;0.40;0.22;;;;;;;;;;4994136;28;20023;-79
2023/05/09 06:13:36;;;;;;;0.35;0.35;;;;;;;;;;4992146;28;20113;-79
2023/05/09 06:16:02;;;;;;;0.40;0.40;;;;;;;;;;4975253;28;20030;-79
2023/05/09 06:18:27;;;;;;;0.40;0.40;;;;;;;;;;4992631;28;20022;-80
2023/05/09 06:20:53;;;;;;;2.83;0.60;;;;;;;;;;4991602;28;20037;-80
2023/05/09 06:23:21;;;;;;;0.32;0.32;;;;;;;;;;4992378;28;20014;-80
2023/05/09 06:25:46;;;;;;;0.45;0.45;;;;;;;;;;4975282;28;20058;-79
2023/05/09 06:28:11;;;;;;;1.02;0.38;;;;;;;;;;4993701;28;20540;-81
2023/05/09 06:30:37;;;;;;;2.22;0.30;;;;;;;;;;4975395;28;20408;-80
2023/05/09 06:33:02;;;;;;;0.30;0.30;;;;;;;;;;4994622;28;20104;-80
2023/05/09 06:35:27;;;;;;;0.30;0.30;;;;;;;;;;4971953;28;20042;-79
2023/05/09 06:37:53;;;;;;;0.35;0.30;;;;;;;;;;4970108;28;20035;-80
2023/05/09 06:40:18;;;;;;;1.25;0.40;;;;;;;;;;4985542;28;20038;-79
2023/05/09 06:42:44;;;;;;;0.30;0.30;;;;;;;;;;4990833;28;20105;-80
2023/05/09 06:45:09;;;;;;;0.20;0.20;;;;;;;;;;4990743;28;20022;-80
2023/05/09 06:47:35;;;;;;;0.20;0.20;;;;;;;;;;4991502;28;20725;-79
2023/05/09 06:50:00;;;;;;;0.30;0.30;;;;;;;;;;4992161;28;20018;-79
2023/05/09 06:52:25;;;;;;;0.40;0.40;;;;;;;;;;4989325;28;20031;-78
2023/05/09 06:54:52;;;;;;;0.20;0.20;;;;;;;;;;4982158;28;20540;-79
2023/05/09 06:57:17;;;;;;;0.30;0.30;;;;;;;;;;4988846;28;20110;-77
2023/05/09 06:59:43;;;;;;;0.30;0.30;;;;;;;;;;4991387;28;20471;-79
2023/05/09 07:02:09;;;;;;;0.40;0.40;;;;;;;;;;4987649;28;20017;-78
2023/05/09 07:04:34;;;;;;;1.35;0.40;;;;;;;;;;4988351;28;20046;-77
2023/05/09 07:06:59;;;;;;;0.50;0.40;;;;;;;;;;4987490;28;20034;-78
2023/05/09 07:09:27;;;;;;;0.40;0.40;;;;;;;;;;4985513;28;20015;-79
2023/05/09 07:11:53;;;;;;;0.93;0.82;;;;;;;;;;4987959;28;20034;-77
2023/05/09 07:14:19;;;;;;;1.58;1.48;;;;;;;;;;4970329;28;20049;-78
2023/05/09 07:16:45;;;;;;;1.30;1.20;;;;;;;;;;4988592;28;20054;-78
2023/05/09 07:19:11;;;;;;;0.50;0.50;;;;;;;;;;4972974;28;20026;-79
2023/05/09 07:21:36;;;;;;;0.82;0.82;;;;;;;;;;4973590;28;20022;-79
2023/05/09 07:24:02;;;;;;;1.25;1.17;;;;;;;;;;4989024;28;20113;-79
2023/05/09 07:26:27;;;;;;;0.80;0.80;;;;;;;;;;4977213;28;20034;-79
2023/05/09 07:28:53;;;;;;;1.75;1.65;;;;;;;;;;4986974;28;20125;-78
2023/05/09 07:31:18;;;;;;;1.08;1.02;;;;;;;;;;4988643;28;20411;-77
2023/05/09 07:33:43;;;;;;;1.63;0.50;;;;;;;;;;4985170;28;20018;-77
2023/05/09 07:36:11;;;;;;;2.15;1.13;;;;;;;;;;4968822;28;20273;-77
2023/05/09 07:38:37;;;;;;;1.00;0.82;;;;;;;;;;4984717;28;20387;-78
2023/05/09 07:41:02;;;;;;;0.80;0.80;;;;;;;;;;4986195;28;20448;-78
2023/05/09 07:43:28;;;;;;;0.80;0.80;;;;;;;;;;4988031;28;20019;-78
2023/05/09 07:45:53;;;;;;;0.75;0.75;;;;;;;;;;4966311;28;20054;-77
2023/05/09 07:48:19;;;;;;;0.80;0.80;;;;;;;;;;4981287;28;20556;-77
2023/05/09 07:50:44;;;;;;;0.77;0.77;;;;;;;;;;4988165;28;20061;-78
2023/05/09 07:53:09;;;;;;;0.70;0.70;;;;;;;;;;4997339;28;20415;-79
2023/05/09 07:55:35;;;;;;;0.60;0.60;;;;;;;;;;4975979;28;20022;-78
2023/05/09 07:58:00;;;;;;;0.68;0.68;;;;;;;;;;4993612;28;20045;-78
2023/05/09 08:00:26;;;;;;;1.05;0.95;;;;;;;;;;4991873;28;20034;-78
2023/05/09 08:02:51;;;;;;;0.98;0.98;;;;;;;;;;4990050;28;20093;-79
2023/05/09 08:05:17;;;;;;;0.73;0.73;;;;;;;;;;4991942;28;20044;-79
2023/05/09 08:07:42;;;;;;;0.70;0.70;;;;;;;;;;4991228;28;20034;-79
2023/05/09 08:10:08;;;;;;;2.15;0.70;;;;;;;;;;4990802;28;20076;-79
2023/05/09 08:12:33;;;;;;;0.75;0.75;;;;;;;;;;4991787;28;20022;-79
2023/05/09 08:14:59;;;;;;;0.88;0.88;;;;;;;;;;4978707;28;20049;-80
2023/05/09 08:17:24;;;;;;;1.08;1.08;;;;;;;;;;4979997;28;20422;-79
2023/05/09 08:19:50;;;;;;;1.08;1.08;;;;;;;;;;4994836;28;20497;-79
2023/05/09 08:22:17;;;;;;;1.25;1.15;;;;;;;;;;4998142;28;20030;-79
2023/05/09 08:24:42;;;;;;;1.50;1.40;;;;;;;;;;4973646;28;20019;-79
2023/05/09 08:27:08;;;;;;;1.98;1.88;;;;;;;;;;4978787;28;20085;-80
2023/05/09 08:29:33;;;;;;;2.45;2.35;;;;;;;;;;4996272;28;20049;-80
2023/05/09 08:31:59;;;;;;;3.05;2.85;;;;;;;;;;4990920;28;20026;-80
2023/05/09 08:56:03;;;;;;;2.78;2.58;;;;;;;;;;5168638;23;20085;-79
2023/05/09 08:58:30;;;;;;;3.63;3.42;;;;;;;;;;5005131;28;20034;-80
2023/05/09 09:00:58;;;;;;;4.05;2.75;;;;;;;;;;5003864;28;20057;-80
2023/05/09 09:03:29;;;;;;;2.95;2.75;;;;;;;;;;5011275;28;20479;-81
2023/05/09 09:05:58;;;;;;;3.47;2.42;;;;;;;;;;5007139;28;20022;-80
2023/05/09 09:08:28;;;;;;;2.85;2.65;;;;;;;;;;4994876;28;20064;-80
2023/05/09 09:10:56;;;;;;;2.90;2.70;;;;;;;;;;4995134;23;20050;-79
2023/05/09 09:13:44;;;;;;;2.78;2.58;;;;;;;;;;5029957;28;20030;-80
2023/05/09 09:16:14;;;;;;;2.28;2.17;;;;;;;;;;4998819;28;20068;-79
2023/05/09 09:18:40;;;;;;;3.28;2.80;;;;;;;;;;5006480;28;20571;-79
2023/05/09 09:21:07;;;;;;;3.20;2.90;;;;;;;;;;4996929;28;20048;-79
2023/05/09 09:23:43;;;;;;;2.08;1.98;;;;;;;;;;5027740;28;20045;-80
2023/05/09 09:26:09;;;;;;;2.47;2.38;;;;;;;;;;5006524;28;20026;-80
2023/05/09 09:29:05;;;;;;;2.10;2.00;;;;;;;;;;5012010;28;20057;-81
2023/05/09 09:31:31;;;;;;;2.65;2.50;;;;;;;;;;5006776;28;20013;-80
2023/05/09 09:34:01;;;;;;;2.50;2.40;;;;;;;;;;5027400;28;20040;-80
2023/05/09 09:44:48;;;;;;;2.20;2.05;;;;;;;;;;5032790;28;20053;-80
2023/05/09 09:47:17;;;;;;;1.73;1.63;;;;;;;;;;5033391;28;20062;-79
2023/05/09 09:49:52;;;;;;;3.15;2.03;;;;;;;;;;5033221;28;20033;-81
2023/05/09 09:55:39;;;;;;;2.08;1.98;;;;;;;;;;5033938;28;20036;-80
2023/05/09 09:58:43;;;;;;;2.92;2.72;;;;;;;;;;5018798;28;20022;-81
2023/05/09 10:04:25;;;;;;;2.83;2.63;;;;;;;;;;5036866;28;20064;-83
2023/05/09 10:06:58;;;;;;;4.13;3.83;;;;;;;;;;5018111;28;20081;-80
2023/05/09 10:09:28;;;;;;;5.05;4.65;;;;;;;;;;5035975;28;20026;-80
2023/05/09 10:11:55;;;;;;;4.32;4.03;;;;;;;;;;5032389;28;20041;-79
2023/05/09 10:14:39;;;;;;;4.57;4.18;;;;;;;;;;5033827;28;20010;-80
2023/05/09 10:17:11;;;;;;;3.38;3.17;;;;;;;;;;5033600;28;20022;-82
2023/05/09 10:20:13;;;;;;;3.22;3.03;;;;;;;;;;5035724;28;20006;-80
2023/05/09 10:22:42;;;;;;;3.70;3.40;;;;;;;;;;4989005;28;20149;-80
2023/05/09 10:25:29;;;;;;;3.80;3.50;;;;;;;;;;4983130;28;20023;-82
2023/05/09 10:28:14;;;;;;;2.95;2.75;;;;;;;;;;4993050;28;20057;-80
2023/05/09 10:31:07;;;;;;;2.60;2.40;;;;;;;;;;5013256;28;20018;-79
2023/05/09 10:33:52;;;;;;;3.08;2.58;;;;;;;;;;5020107;28;20034;-82
2023/05/09 10:39:13;;;;;;;3.33;3.13;;;;;;;;;;5510396;23;20041;-79
2023/05/09 10:44:54;;;;;;;2.88;2.63;;;;;;;;;;5055139;28;20035;-79
2023/05/09 10:47:21;;;;;;;3.28;3.08;;;;;;;;;;5066579;23;20066;-79
2023/05/09 10:49:51;;;;;;;2.72;2.53;;;;;;;;;;4989238;28;20080;-80
2023/05/09 10:53:02;;;;;;;2.72;2.40;;;;;;;;;;4992964;28;20526;-80
2023/05/09 10:55:49;;;;;;;2.58;2.38;;;;;;;;;;4976806;28;20047;-80
2023/05/09 11:04:43;;;;;;;3.00;2.80;;;;;;;;;;5016555;28;20082;-81
2023/05/09 11:07:48;;;;;;;3.83;3.53;;;;;;;;;;5003955;28;20046;-80
2023/05/09 11:10:49;;;;;;;3.58;3.28;;;;;;;;;;4956916;28;20039;-81
2023/05/09 11:22:17;;;;;;;2.78;2.58;;;;;;;;;;5053067;28;20048;-80
2023/05/09 11:24:45;;;;;;;3.80;3.50;;;;;;;;;;5036878;28;20041;-80
2023/05/09 11:28:04;;;;;;;3.97;3.65;;;;;;;;;;5043953;28;20098;-79
2023/05/09 11:30:49;;;;;;;3.63;3.33;;;;;;;;;;5052879;28;20071;-80
2023/05/09 11:36:18;;;;;;;3.97;3.78;;;;;;;;;;5035760;28;20025;-80
2023/05/09 11:38:48;;;;;;;4.28;3.88;;;;;;;;;;5062621;28;20029;-81
2023/05/09 11:41:17;;;;;;;4.35;3.95;;;;;;;;;;5069763;28;20029;-80
2023/05/09 11:44:23;;;;;;;4.35;4.05;;;;;;;;;;5013707;28;20034;-80
2023/05/09 11:52:00;;;;;;;3.55;3.30;;;;;;;;;;4996694;23;20153;-80
2023/05/09 11:54:58;;;;;;;4.32;3.92;;;;;;;;;;4991339;28;20082;-81
2023/05/09 11:57:28;;;;;;;4.45;4.15;;;;;;;;;;4944555;28;20026;-79
2023/05/09 12:00:04;;;;;;;4.82;4.45;;;;;;;;;;4971630;29;20062;-80
2023/05/09 12:02:31;;;;;;;5.30;4.90;;;;;;;;;;4967475;28;20033;-79
2023/05/09 12:05:19;;;;;;;6.25;5.68;;;;;;;;;;4985524;28;20039;-79
2023/05/09 12:10:51;;;;;;;4.20;3.80;;;;;;;;;;5345829;23;20062;-81
2023/05/09 12:13:21;;;;;;;;;;;;;;;;;;5024128;28;20038;-80
2023/05/09 12:16:46;;;;;;;4.53;4.22;;;;;;;;;;5015082;28;19977;-80
2023/05/09 12:19:14;;;;;;;3.72;3.42;;;;;;;;;;5007421;28;20042;-79
2023/05/09 12:21:40;;;;;;;3.78;3.42;;;;;;;;;;5007127;28;20033;-78
2023/05/09 12:24:07;;;;;;;2.80;2.60;;;;;;;;;;5024991;28;20034;-80
2023/05/09 12:26:36;;;;;;;3.65;2.38;;;;;;;;;;5003015;28;20697;-81
2023/05/09 12:29:01;;;;;;;2.80;2.60;;;;;;;;;;5026593;28;20025;-82
2023/05/09 12:31:28;;;;;;;2.67;2.47;;;;;;;;;;5028989;28;20018;-79
2023/05/09 12:33:54;;;;;;;2.88;2.67;;;;;;;;;;5005726;28;20042;-79
2023/05/09 12:36:41;;;;;;;1.70;1.40;;;;;;;;;;5025855;28;20032;-77
2023/05/09 12:39:08;;;;;;;1.13;1.00;;;;;;;;;;5023767;28;20014;-79
2023/05/09 12:41:41;;;;;;;1.20;1.10;;;;;;;;;;5009926;28;20022;-79
2023/05/09 12:44:31;;;;;;;0.93;0.93;;;;;;;;;;5020566;28;20130;-79
2023/05/09 12:47:05;;;;;;;1.80;1.70;;;;;;;;;;5025047;28;20050;-79
2023/05/09 12:49:31;;;;;;;1.73;1.63;;;;;;;;;;5001629;28;20021;-79
2023/05/09 12:52:00;;;;;;;2.05;1.95;;;;;;;;;;5025145;28;20033;-79
2023/05/09 12:54:26;;;;;;;2.15;2.05;;;;;;;;;;5019707;28;20022;-79
2023/05/09 12:57:24;;;;;;;3.53;1.98;;;;;;;;;;5021538;28;20026;-79
2023/05/09 12:59:49;;;;;;;1.67;1.58;;;;;;;;;;5003660;28;20033;-79
2023/05/09 13:02:15;;;;;;;1.13;1.08;;;;;;;;;;5003846;28;20507;-79
2023/05/09 13:04:40;;;;;;;2.35;1.40;;;;;;;;;;5018194;28;20081;-79
2023/05/09 13:07:10;;;;;;;0.90;0.90;;;;;;;;;;5023266;28;20029;-79
2023/05/09 13:10:01;;;;;;;1.42;1.30;;;;;;;;;;5026837;28;20030;-79
2023/05/09 13:12:52;;;;;;;1.63;1.52;;;;;;;;;;5017268;28;20128;-80
2023/05/09 13:15:21;;;;;;;1.60;1.50;;;;;;;;;;5025344;28;20041;-80
2023/05/09 13:17:47;;;;;;;1.55;1.45;;;;;;;;;;5025608;28;20030;-79
2023/05/09 13:20:15;;;;;;;1.70;1.60;;;;;;;;;;5025812;28;20069;-79
2023/05/09 13:22:43;;;;;;;1.48;1.38;;;;;;;;;;5019946;28;20026;-79
2023/05/09 13:25:09;;;;;;;1.67;1.57;;;;;;;;;;5017870;28;20021;-79
2023/05/09 13:27:36;;;;;;;1.67;1.58;;;;;;;;;;4996188;28;20384;-79
2023/05/09 13:30:02;;;;;;;3.53;2.00;;;;;;;;;;5013681;28;20014;-79
2023/05/09 13:32:28;;;;;;;2.85;2.08;;;;;;;;;;5012998;28;20022;-80
2023/05/09 13:34:58;;;;;;;1.70;1.60;;;;;;;;;;5017970;28;20100;-78
2023/05/09 13:37:25;;;;;;;1.58;1.48;;;;;;;;;;5016661;28;20057;-80
2023/05/09 13:39:51;;;;;;;1.70;1.60;;;;;;;;;;4982620;28;20093;-79
2023/05/09 13:42:17;;;;;;;1.55;1.45;;;;;;;;;;5017727;28;20046;-80
2023/05/09 13:45:10;;;;;;;1.65;1.55;;;;;;;;;;5024622;28;20058;-80
2023/05/09 13:47:48;;;;;;;2.17;1.98;;;;;;;;;;5030590;28;20038;-80
2023/05/09 13:50:15;;;;;;;1.90;1.80;;;;;;;;;;5018334;28;20021;-79
2023/05/09 13:52:40;;;;;;;2.13;2.03;;;;;;;;;;5017863;28;20440;-79
2023/05/09 13:55:12;;;;;;;2.03;1.92;;;;;;;;;;5001733;28;20029;-79
2023/05/09 13:57:42;;;;;;;2.88;1.80;;;;;;;;;;4994773;28;20023;-80
2023/05/09 14:00:28;;;;;;;1.98;1.88;;;;;;;;;;5008479;28;20046;-80
2023/05/09 14:02:56;;;;;;;1.08;1.00;;;;;;;;;;4990760;28;20029;-80
2023/05/09 14:06:07;;;;;;;1.67;1.58;;;;;;;;;;5005910;28;20030;-80
2023/05/09 14:09:06;;;;;;;1.67;1.58;;;;;;;;;;4992637;28;20048;-80
2023/05/09 14:11:54;;;;;;;2.45;1.90;;;;;;;;;;4991880;28;20049;-82
2023/05/09 14:14:39;;;;;;;2.95;2.20;;;;;;;;;;4998163;28;20113;-82
2023/05/09 14:17:05;;;;;;;2.20;2.10;;;;;;;;;;4987697;28;20121;-81
2023/05/09 14:19:31;;;;;;;1.70;1.60;;;;;;;;;;4998860;28;20029;-79
2023/05/09 14:21:57;;;;;;;1.08;0.90;;;;;;;;;;5000047;28;20026;-79
2023/05/09 14:24:22;;;;;;;1.00;1.00;;;;;;;;;;5006561;28;20104;-80
2023/05/09 14:26:51;;;;;;;1.30;1.20;;;;;;;;;;5021879;28;20125;-80
2023/05/09 14:29:26;;;;;;;1.55;1.45;;;;;;;;;;5012839;28;20033;-80
2023/05/09 14:31:52;;;;;;;2.13;1.67;;;;;;;;;;5011766;28;20033;-80
2023/05/09 14:34:17;;;;;;;1.75;1.65;;;;;;;;;;5009152;28;20062;-80
2023/05/09 14:36:43;;;;;;;1.40;1.33;;;;;;;;;;4982455;28;20023;-80
2023/05/09 14:39:08;;;;;;;1.58;1.48;;;;;;;;;;4998826;28;20040;-79
2023/05/09 14:41:34;;;;;;;0.68;0.68;;;;;;;;;;5008205;28;20014;-79
2023/05/09 14:44:02;;;;;;;0.95;0.95;;;;;;;;;;5001361;28;20038;-79
2023/05/09 14:46:29;;;;;;;1.00;1.00;;;;;;;;;;5000091;28;20022;-80
2023/05/09 14:48:56;;;;;;;1.00;0.90;;;;;;;;;;5003035;28;20049;-79
2023/05/09 14:51:24;;;;;;;0.80;0.80;;;;;;;;;;5001813;28;20453;-80
2023/05/09 14:53:52;;;;;;;1.03;1.03;;;;;;;;;;4988484;28;20049;-81
2023/05/09 14:56:17;;;;;;;0.80;0.80;;;;;;;;;;5005145;28;20033;-80
2023/05/09 14:58:43;;;;;;;0.90;0.90;;;;;;;;;;5020792;28;20344;-80
2023/05/09 15:01:09;;;;;;;1.20;1.08;;;;;;;;;;5002877;28;20053;-79
2023/05/09 15:03:34;;;;;;;0.90;0.90;;;;;;;;;;4997652;28;20010;-80
2023/05/09 15:06:00;;;;;;;1.02;1.02;;;;;;;;;;5000261;28;20029;-80
2023/05/09 15:08:28;;;;;;;1.23;1.17;;;;;;;;;;5002537;28;20022;-81
2023/05/09 15:10:55;;;;;;;1.65;1.55;;;;;;;;;;4999783;28;20022;-80
2023/05/09 15:13:20;;;;;;;1.58;1.48;;;;;;;;;;4982591;28;20060;-80
2023/05/09 15:15:52;;;;;;;1.70;1.48;;;;;;;;;;5018848;28;20014;-80
2023/05/09 15:18:22;;;;;;;1.50;1.40;;;;;;;;;;5005201;28;20026;-80
2023/05/09 15:20:50;;;;;;;1.02;1.02;;;;;;;;;;5023809;28;20034;-80
2023/05/09 15:23:19;;;;;;;1.05;1.02;;;;;;;;;;4999402;28;20029;-80
2023/05/09 15:25:45;;;;;;;1.02;0.98;;;;;;;;;;5008889;28;20049;-79
2023/05/09 15:28:10;;;;;;;1.20;1.10;;;;;;;;;;5006851;28;20030;-80
2023/05/09 15:30:39;;;;;;;1.00;1.00;;;;;;;;;;5007141;28;20097;-80
2023/05/09 15:33:10;;;;;;;1.10;1.10;;;;;;;;;;5005850;28;20018;-80
2023/05/09 15:35:39;;;;;;;1.20;1.20;;;;;;;;;;4990464;28;20027;-79
2023/05/09 15:38:10;;;;;;;1.17;1.13;;;;;;;;;;5006593;28;20033;-80
2023/05/09 15:40:36;;;;;;;1.40;1.30;;;;;;;;;;5005883;28;20022;-79
2023/05/09 15:43:04;;;;;;;0.98;0.98;;;;;;;;;;5004620;28;20053;-79
2023/05/09 15:45:35;;;;;;;2.15;1.10;;;;;;;;;;5011777;28;20090;-80
2023/05/09 15:48:01;;;;;;;1.30;1.20;;;;;;;;;;5006977;28;20046;-80
2023/05/09 15:50:29;;;;;;;1.30;1.08;;;;;;;;;;4993354;28;20002;-80
2023/05/09 15:52:55;;;;;;;1.23;1.23;;;;;;;;;;5043141;28;20034;-80
2023/05/09 15:58:25;;;;;;;1.35;1.25;;;;;;;;;;5030465;28;20034;-81
2023/05/09 16:00:51;;;;;;;1.73;1.63;;;;;;;;;;5016180;28;20048;-80
2023/05/09 16:03:20;;;;;;;1.40;1.30;;;;;;;;;;4990174;28;20030;-80
2023/05/09 16:05:51;;;;;;;1.40;1.30;;;;;;;;;;4991173;28;20092;-80